createdAt,value
2023-05-18T00:02:16.151Z,3.38
2023-05-18T00:04:44.192Z,3.20
2023-05-18T00:07:12.575Z,2.65
2023-05-18T00:09:41.715Z,2.47
2023-05-18T00:12:10.142Z,2.30
2023-05-18T00:14:38.229Z,2.53
2023-05-18T00:17:06.348Z,2.15
2023-05-18T00:19:34.274Z,2.30
2023-05-18T00:22:02.177Z,2.33
2023-05-18T00:24:30.050Z,2.17
2023-05-18T00:26:59.330Z,3.42
2023-05-18T00:29:27.050Z,3.65
2023-05-18T00:31:57.475Z,2.28
2023-05-18T00:34:25.168Z,2.30
2023-05-18T00:36:52.888Z,3.07
2023-05-18T00:39:21.063Z,2.72
2023-05-18T00:41:48.656Z,2.42
2023-05-18T00:44:17.673Z,2.63
2023-05-18T00:46:45.675Z,2.10
2023-05-18T00:49:13.944Z,2.17
2023-05-18T00:51:42.177Z,2.13
2023-05-18T00:54:10.298Z,2.13
2023-05-18T00:56:41.602Z,2.33
2023-05-18T00:59:10.461Z,1.98
2023-05-18T01:01:43.637Z,2.40
2023-05-18T01:04:14.168Z,1.67
2023-05-18T01:06:43.682Z,2.35
2023-05-18T01:09:13.540Z,2.22
2023-05-18T01:11:51.243Z,2.80
2023-05-18T01:14:27.062Z,2.17
2023-05-18T01:17:07.139Z,2.05
2023-05-18T01:20:07.040Z,2.17
2023-05-18T01:22:46.713Z,2.10
2023-05-18T01:25:23.678Z,2.50
2023-05-18T01:27:56.187Z,2.00
2023-05-18T01:30:24.731Z,2.35
2023-05-18T01:32:52.526Z,2.67
2023-05-18T01:35:20.157Z,2.40
2023-05-18T01:37:47.804Z,2.25
2023-05-18T01:40:15.603Z,2.10
2023-05-18T01:42:47.896Z,2.50
2023-05-18T01:45:22.569Z,2.30
2023-05-18T01:47:54.384Z,1.90
2023-05-18T01:50:28.882Z,2.05
2023-05-18T01:53:06.052Z,2.00
2023-05-18T01:55:36.460Z,2.15
2023-05-18T01:58:05.856Z,2.08
2023-05-18T02:00:35.516Z,1.80
2023-05-18T02:03:03.813Z,1.80
2023-05-18T02:05:31.786Z,1.70
2023-05-18T02:07:59.737Z,1.75
2023-05-18T02:10:27.334Z,1.80
2023-05-18T02:12:54.940Z,1.67
2023-05-18T02:15:22.675Z,1.58
2023-05-18T02:17:51.803Z,1.37
2023-05-18T02:20:19.473Z,1.52
2023-05-18T02:22:47.054Z,1.75
2023-05-18T02:25:14.734Z,1.80
2023-05-18T02:27:42.335Z,1.77
2023-05-18T02:30:11.663Z,1.90
2023-05-18T02:32:42.711Z,1.77
2023-05-18T02:35:11.967Z,2.00
2023-05-18T02:37:42.231Z,2.08
2023-05-18T02:40:12.443Z,2.20
2023-05-18T02:42:40.123Z,2.17
2023-05-18T02:45:09.052Z,1.90
2023-05-18T02:47:36.686Z,2.25
2023-05-18T02:50:04.859Z,2.35
2023-05-18T02:52:34.055Z,1.58
2023-05-18T02:55:01.996Z,1.50
2023-05-18T02:57:29.573Z,1.98
2023-05-18T02:59:57.398Z,1.73
2023-05-18T03:02:25.125Z,1.70
2023-05-18T03:04:57.329Z,1.55
2023-05-18T03:07:24.987Z,1.73
2023-05-18T03:09:54.104Z,1.83
2023-05-18T03:12:21.778Z,1.83
2023-05-18T03:14:49.600Z,1.90
2023-05-18T03:17:17.200Z,1.73
2023-05-18T03:19:44.866Z,2.17
2023-05-18T03:22:12.664Z,1.70
2023-05-18T03:24:41.111Z,1.42
2023-05-18T03:27:10.166Z,1.85
2023-05-18T03:29:37.828Z,1.58
2023-05-18T03:32:05.901Z,1.83
2023-05-18T03:34:33.532Z,1.67
2023-05-18T03:37:02.003Z,1.50
2023-05-18T03:39:29.662Z,1.60
2023-05-18T03:41:57.278Z,1.63
2023-05-18T03:44:26.182Z,1.93
2023-05-18T03:46:54.028Z,1.52
2023-05-18T03:49:21.564Z,1.90
2023-05-18T03:51:49.368Z,1.65
2023-05-18T03:54:16.999Z,1.88
2023-05-18T03:56:44.790Z,1.43
2023-05-18T03:59:12.425Z,1.77
2023-05-18T04:01:42.304Z,2.00
2023-05-18T04:04:10.092Z,1.75
2023-05-18T04:06:37.708Z,1.83
2023-05-18T04:09:05.807Z,1.70
2023-05-18T04:11:33.565Z,1.75
2023-05-18T04:14:01.857Z,2.20
2023-05-18T04:16:29.660Z,2.00
2023-05-18T04:19:00.254Z,1.52
2023-05-18T04:21:29.572Z,1.80
2023-05-18T04:23:59.680Z,1.60
2023-05-18T04:26:27.281Z,1.73
2023-05-18T04:28:59.997Z,1.33
2023-05-18T04:31:28.023Z,1.67
2023-05-18T04:33:55.816Z,1.80
2023-05-18T04:36:25.710Z,1.80
2023-05-18T04:38:53.524Z,1.30
2023-05-18T04:41:22.258Z,1.10
2023-05-18T04:43:50.579Z,1.88
2023-05-18T04:46:18.218Z,1.37
2023-05-18T04:48:49.843Z,1.50
2023-05-18T04:51:18.055Z,2.00
2023-05-18T04:53:46.993Z,1.60
2023-05-18T04:56:14.958Z,1.50
2023-05-18T04:58:45.934Z,1.87
2023-05-18T05:01:15.309Z,1.50
2023-05-18T05:03:43.268Z,1.55
2023-05-18T05:06:11.668Z,1.45
2023-05-18T05:08:39.288Z,1.20
2023-05-18T05:11:08.278Z,1.47
2023-05-18T05:13:36.454Z,1.70
2023-05-18T05:16:04.145Z,1.67
2023-05-18T05:18:31.757Z,1.90
2023-05-18T05:20:59.630Z,1.45
2023-05-18T05:23:27.353Z,1.40
2023-05-18T05:25:55.068Z,1.48
2023-05-18T05:28:24.260Z,1.80
2023-05-18T05:30:51.774Z,1.77
2023-05-18T05:33:19.564Z,1.65
2023-05-18T05:35:47.301Z,1.60
2023-05-18T05:38:14.844Z,1.23
2023-05-18T05:40:42.421Z,1.75
2023-05-18T05:43:09.956Z,1.77
2023-05-18T05:45:39.225Z,2.50
2023-05-18T05:48:07.314Z,1.50
2023-05-18T05:50:34.861Z,1.70
2023-05-18T05:53:02.406Z,2.33
2023-05-18T05:55:30.046Z,2.75
2023-05-18T05:57:57.750Z,2.70
2023-05-18T06:00:27.716Z,3.03
2023-05-18T06:02:56.636Z,3.03
2023-05-18T06:05:24.222Z,2.58
2023-05-18T06:07:51.876Z,2.55
2023-05-18T06:10:19.533Z,2.70
2023-05-18T06:12:47.056Z,2.73
2023-05-18T06:15:14.641Z,2.67
2023-05-18T06:17:44.039Z,3.42
2023-05-18T06:20:14.154Z,3.03
2023-05-18T06:22:41.809Z,2.67
2023-05-18T06:25:10.587Z,1.80
2023-05-18T06:27:39.119Z,2.45
2023-05-18T06:30:10.766Z,2.08
2023-05-18T06:32:38.640Z,1.80
2023-05-18T06:35:07.410Z,2.10
2023-05-18T06:37:36.590Z,1.87
2023-05-18T06:40:05.953Z,1.85
2023-05-18T06:42:33.528Z,1.83
2023-05-18T06:45:01.073Z,2.00
2023-05-18T06:47:28.667Z,2.65
2023-05-18T06:49:56.220Z,1.93
2023-05-18T06:52:26.373Z,0.95
2023-05-18T06:54:56.057Z,1.02
2023-05-18T06:57:23.558Z,1.23
2023-05-18T06:59:53.752Z,1.33
2023-05-18T07:02:21.971Z,1.80
2023-05-18T07:04:50.177Z,1.63
2023-05-18T07:07:17.732Z,1.60
2023-05-18T07:09:45.637Z,1.25
2023-05-18T07:12:14.565Z,1.73
2023-05-18T07:14:42.005Z,1.40
2023-05-18T07:17:09.493Z,1.50
2023-05-18T07:19:36.985Z,1.38
2023-05-18T07:22:05.059Z,1.10
2023-05-18T07:24:32.605Z,1.38
2023-05-18T07:27:01.077Z,1.03
2023-05-18T07:29:30.219Z,1.75
2023-05-18T07:31:58.008Z,2.05
2023-05-18T07:34:26.888Z,1.45
2023-05-18T07:36:54.839Z,1.52
2023-05-18T07:39:28.421Z,1.73
2023-05-18T07:41:56.192Z,2.70
2023-05-18T07:44:24.162Z,1.13
2023-05-18T07:46:55.592Z,1.63
2023-05-18T07:49:24.047Z,1.63
2023-05-18T07:51:51.580Z,2.03
2023-05-18T07:54:19.143Z,1.52
2023-05-18T07:56:46.791Z,1.23
2023-05-18T07:59:14.502Z,2.20
2023-05-18T08:01:45.042Z,1.73
2023-05-18T08:04:14.234Z,1.77
2023-05-18T08:06:41.765Z,1.20
2023-05-18T08:09:09.289Z,1.48
2023-05-18T08:11:37.278Z,1.45
2023-05-18T08:14:05.376Z,1.13
2023-05-18T08:16:36.967Z,2.13
2023-05-18T08:19:04.687Z,1.70
2023-05-18T08:21:34.451Z,1.85
2023-05-18T08:24:03.458Z,1.35
2023-05-18T08:26:30.998Z,1.65
2023-05-18T08:28:58.475Z,1.23
2023-05-18T08:31:26.055Z,1.30
2023-05-18T08:33:53.573Z,1.17
2023-05-18T08:36:21.053Z,1.67
2023-05-18T08:38:49.914Z,1.05
2023-05-18T08:41:25.882Z,1.37
2023-05-18T08:44:00.171Z,1.15
2023-05-18T08:46:33.265Z,1.35
2023-05-18T08:49:02.502Z,1.83
2023-05-18T08:51:34.496Z,1.00
2023-05-18T08:54:05.260Z,1.37
2023-05-18T08:56:34.414Z,1.15
2023-05-18T08:59:07.661Z,1.30
2023-05-18T09:01:36.138Z,1.40
2023-05-18T09:04:04.335Z,1.77
2023-05-18T09:06:34.129Z,1.90
2023-05-18T09:09:04.404Z,1.40
2023-05-18T09:11:34.487Z,1.77
2023-05-18T09:14:02.614Z,1.42
2023-05-18T09:16:30.509Z,2.00
2023-05-18T09:18:58.209Z,1.90
2023-05-18T09:21:26.125Z,1.48
2023-05-18T09:23:53.854Z,1.33
2023-05-18T09:26:22.767Z,1.77
2023-05-18T09:28:53.813Z,1.42
2023-05-18T09:31:24.350Z,1.20
2023-05-18T09:33:53.362Z,1.65
2023-05-18T09:36:26.025Z,2.20
2023-05-18T09:38:54.008Z,0.90
2023-05-18T09:41:30.564Z,1.55
2023-05-18T09:43:58.089Z,1.50
2023-05-18T09:46:25.729Z,2.00
2023-05-18T09:48:55.102Z,1.30
2023-05-18T09:51:25.100Z,1.58
2023-05-18T09:53:54.998Z,1.00
2023-05-18T09:56:24.340Z,0.90
2023-05-18T09:58:52.067Z,1.17
2023-05-18T10:01:19.809Z,2.28
2023-05-18T10:03:49.589Z,2.15
2023-05-18T10:06:19.920Z,1.40
2023-05-18T10:08:47.778Z,1.37
2023-05-18T10:11:18.585Z,1.65
2023-05-18T10:13:47.809Z,1.85
2023-05-18T10:16:16.677Z,1.35
2023-05-18T10:18:44.817Z,2.67
2023-05-18T10:21:14.839Z,0.83
2023-05-18T10:23:44.787Z,1.90
2023-05-18T10:26:13.362Z,1.48
2023-05-18T10:28:43.972Z,1.23
2023-05-18T10:31:16.422Z,2.00
2023-05-18T10:33:45.436Z,6.50
2023-05-18T10:36:13.310Z,2.50
2023-05-18T10:38:44.993Z,2.50
2023-05-18T10:41:13.372Z,2.30
2023-05-18T10:43:42.405Z,2.72
2023-05-18T10:46:10.782Z,3.23
2023-05-18T10:48:41.138Z,2.45
2023-05-18T10:51:09.218Z,3.28
2023-05-18T10:53:37.716Z,4.32
2023-05-18T10:56:05.648Z,1.98
2023-05-18T10:58:34.398Z,1.50
2023-05-18T11:01:06.358Z,2.10
2023-05-18T11:03:34.533Z,4.75
2023-05-18T11:06:10.186Z,2.45
2023-05-18T11:08:44.497Z,2.13
2023-05-18T11:11:13.367Z,1.80
2023-05-18T11:13:45.584Z,2.00
2023-05-18T11:16:13.457Z,1.60
2023-05-18T11:18:44.128Z,2.20
2023-05-18T11:21:31.958Z,1.92
2023-05-18T11:24:25.112Z,2.30
2023-05-18T11:26:54.881Z,1.80
2023-05-18T11:29:24.543Z,1.80
2023-05-18T11:31:54.469Z,2.20
2023-05-18T11:34:42.128Z,2.00
2023-05-18T11:37:11.930Z,2.00
2023-05-18T11:39:51.663Z,1.55
2023-05-18T11:42:20.268Z,1.85
2023-05-18T11:44:53.337Z,2.38
2023-05-18T11:47:21.104Z,1.88
2023-05-18T11:49:50.026Z,1.60
2023-05-18T11:52:21.027Z,2.25
2023-05-18T11:54:52.746Z,2.20
2023-05-18T11:57:22.092Z,1.92
2023-05-18T11:59:50.139Z,1.45
2023-05-18T12:02:22.589Z,1.30
2023-05-18T12:04:53.387Z,1.67
2023-05-18T12:07:23.458Z,1.95
2023-05-18T12:09:51.107Z,2.00
2023-05-18T12:12:20.737Z,1.73
2023-05-18T12:14:55.406Z,2.47
2023-05-18T12:17:24.182Z,2.70
2023-05-18T12:19:52.334Z,2.10
2023-05-18T12:22:19.924Z,1.55
2023-05-18T12:24:52.478Z,1.23
2023-05-18T12:27:22.861Z,2.50
2023-05-18T12:29:50.890Z,1.80
2023-05-18T12:32:18.511Z,2.08
2023-05-18T12:34:46.251Z,1.90
2023-05-18T12:37:13.782Z,2.30
2023-05-18T12:39:41.303Z,2.00
2023-05-18T12:42:16.984Z,2.10
2023-05-18T12:44:46.220Z,1.42
2023-05-18T12:47:15.141Z,1.45
2023-05-18T12:49:44.605Z,1.55
2023-05-18T12:52:13.997Z,1.73
2023-05-18T12:54:55.557Z,1.88
2023-05-18T12:57:27.026Z,2.05
2023-05-18T12:59:55.460Z,1.45
2023-05-18T13:02:31.156Z,1.50
2023-05-18T13:05:07.226Z,2.13
2023-05-18T13:07:39.470Z,1.38
2023-05-18T13:10:08.155Z,1.50
2023-05-18T13:12:48.252Z,2.17
2023-05-18T13:15:17.732Z,1.75
2023-05-18T13:17:58.969Z,2.30
2023-05-18T13:20:36.247Z,0.98
2023-05-18T13:23:05.638Z,1.30
2023-05-18T13:25:33.715Z,1.70
2023-05-18T13:28:03.162Z,2.13
2023-05-18T13:30:31.051Z,2.53
2023-05-18T13:32:59.980Z,1.38
2023-05-18T13:35:27.470Z,1.67
2023-05-18T13:37:55.286Z,2.05
2023-05-18T13:40:25.317Z,1.00
2023-05-18T13:42:53.177Z,2.10
2023-05-18T13:45:22.494Z,1.52
2023-05-18T13:47:51.489Z,1.60
2023-05-18T13:50:19.330Z,1.77
2023-05-18T13:52:47.578Z,1.10
2023-05-18T13:55:15.576Z,2.00
2023-05-18T13:57:43.257Z,1.13
2023-05-18T14:00:13.322Z,1.60
2023-05-18T14:02:42.713Z,1.17
2023-05-18T14:05:11.368Z,1.50
2023-05-18T14:07:40.728Z,1.00
2023-05-18T14:10:09.901Z,1.35
2023-05-18T14:12:38.024Z,1.70
2023-05-18T14:15:06.875Z,1.58
2023-05-18T14:17:35.277Z,1.65
2023-05-18T14:20:05.241Z,1.03
2023-05-18T14:22:32.965Z,1.67
2023-05-18T14:25:00.909Z,1.15
2023-05-18T14:27:28.552Z,1.48
2023-05-18T14:29:56.549Z,1.50
2023-05-18T14:32:24.038Z,1.53
2023-05-18T14:34:55.134Z,1.80
2023-05-18T14:37:23.975Z,1.55
2023-05-18T14:39:52.023Z,1.60
2023-05-18T14:42:19.781Z,1.10
2023-05-18T14:44:47.321Z,1.37
2023-05-18T14:47:14.850Z,1.20
2023-05-18T14:49:42.386Z,1.63
2023-05-18T14:52:09.960Z,2.40
2023-05-18T14:54:38.845Z,1.10
2023-05-18T14:57:06.472Z,1.37
2023-05-18T14:59:33.986Z,1.38
2023-05-18T15:02:02.036Z,1.60
2023-05-18T15:04:29.560Z,1.13
2023-05-18T15:06:57.191Z,1.88
2023-05-18T15:09:26.714Z,1.37
2023-05-18T15:11:56.182Z,1.83
2023-05-18T15:14:23.689Z,2.72
2023-05-18T15:16:51.641Z,1.58
2023-05-18T15:19:19.293Z,2.25
2023-05-18T15:21:46.909Z,1.73
2023-05-18T15:24:14.436Z,0.70
2023-05-18T15:26:42.354Z,1.30
2023-05-18T15:29:11.246Z,1.83
2023-05-18T15:31:39.706Z,1.75
2023-05-18T15:34:07.408Z,1.67
2023-05-18T15:36:36.291Z,1.60
2023-05-18T15:39:04.744Z,1.58
2023-05-18T15:41:34.430Z,1.42
2023-05-18T15:44:02.531Z,1.70
2023-05-18T15:46:35.447Z,1.07
2023-05-18T15:49:03.890Z,1.20
2023-05-18T15:51:32.021Z,0.95
2023-05-18T15:53:59.559Z,1.42
2023-05-18T15:56:27.128Z,1.45
2023-05-18T15:58:54.602Z,1.97
2023-05-18T16:01:22.189Z,1.55
2023-05-18T16:03:51.109Z,1.40
2023-05-18T16:06:18.877Z,1.48
2023-05-18T16:08:46.694Z,1.35
2023-05-18T16:11:14.167Z,1.50
2023-05-18T16:13:41.680Z,0.90
2023-05-18T16:16:10.453Z,1.48
2023-05-18T16:18:38.197Z,1.30
2023-05-18T16:21:07.340Z,2.28
2023-05-18T16:23:34.941Z,1.60
2023-05-18T16:26:05.207Z,1.85
2023-05-18T16:28:33.174Z,2.67
2023-05-18T16:31:01.218Z,2.28
2023-05-18T16:33:28.782Z,2.25
2023-05-18T16:35:58.145Z,2.10
2023-05-18T16:38:27.200Z,2.42
2023-05-18T16:40:54.748Z,1.95
2023-05-18T16:43:22.219Z,2.70
2023-05-18T16:45:49.740Z,2.00
2023-05-18T16:48:17.229Z,1.97
2023-05-18T16:50:44.756Z,2.00
2023-05-18T16:53:12.281Z,2.58
2023-05-18T16:55:41.235Z,2.20
2023-05-18T16:58:09.031Z,2.80
2023-05-18T17:00:36.536Z,2.30
2023-05-18T17:03:05.287Z,3.40
2023-05-18T17:05:34.497Z,2.30
2023-05-18T17:08:02.170Z,3.78
2023-05-18T17:10:29.882Z,2.35
2023-05-18T17:12:59.760Z,2.80
2023-05-18T17:15:27.286Z,2.80
2023-05-18T17:17:54.885Z,2.67
2023-05-18T17:20:22.643Z,2.42
2023-05-18T17:22:51.550Z,2.47
2023-05-18T17:25:19.442Z,2.20
2023-05-18T17:27:47.014Z,2.38
2023-05-18T17:30:16.127Z,2.50
2023-05-18T17:32:45.412Z,2.70
2023-05-18T17:35:14.373Z,2.00
2023-05-18T17:37:42.163Z,2.10
2023-05-18T17:40:10.850Z,2.22
2023-05-18T17:42:38.470Z,2.53
2023-05-18T17:45:06.623Z,2.65
2023-05-18T17:47:35.670Z,2.42
2023-05-18T17:50:03.806Z,2.40
2023-05-18T17:52:31.373Z,2.30
2023-05-18T17:54:58.885Z,2.10
2023-05-18T17:57:26.801Z,2.50
2023-05-18T17:59:54.355Z,3.00
2023-05-18T18:02:22.015Z,2.47
2023-05-18T18:04:51.358Z,2.47
2023-05-18T18:07:18.906Z,2.20
2023-05-18T18:09:46.439Z,1.90
2023-05-18T18:12:14.097Z,3.28
2023-05-18T18:14:41.740Z,2.20
2023-05-18T18:17:09.532Z,2.20
2023-05-18T18:19:37.262Z,2.38
2023-05-18T18:22:06.250Z,2.60
2023-05-18T18:24:33.772Z,3.50
2023-05-18T18:27:01.388Z,3.27
2023-05-18T18:29:30.349Z,3.40
2023-05-18T18:31:58.384Z,3.40
2023-05-18T18:34:28.437Z,2.50
2023-05-18T18:36:56.704Z,2.67
2023-05-18T18:39:25.949Z,2.07
2023-05-18T18:41:53.566Z,2.70
2023-05-18T18:44:23.999Z,3.05
2023-05-18T18:46:51.845Z,2.20
2023-05-18T18:49:22.088Z,2.83
2023-05-18T18:51:50.735Z,2.13
2023-05-18T18:54:18.402Z,2.65
2023-05-18T18:56:47.416Z,2.90
2023-05-18T18:59:15.000Z,2.95
2023-05-18T19:01:42.618Z,2.90
2023-05-18T19:04:10.418Z,3.00
2023-05-18T19:06:38.098Z,2.80
2023-05-18T19:09:08.326Z,2.85
2023-05-18T19:11:36.639Z,2.50
2023-05-18T19:14:08.195Z,2.83
2023-05-18T19:16:35.914Z,2.20
2023-05-18T19:19:08.532Z,2.80
2023-05-18T19:21:36.348Z,3.00
2023-05-18T19:24:04.282Z,2.50
2023-05-18T19:26:32.560Z,2.42
2023-05-18T19:29:01.487Z,2.27
2023-05-18T19:31:31.805Z,3.05
2023-05-18T19:34:00.606Z,2.70
2023-05-18T19:36:28.779Z,2.97
2023-05-18T19:38:56.349Z,2.70
2023-05-18T19:41:24.738Z,2.40
2023-05-18T19:43:52.593Z,2.42
2023-05-18T19:46:20.494Z,2.83
2023-05-18T19:48:49.486Z,2.60
2023-05-18T19:51:18.412Z,2.55
2023-05-18T19:53:46.330Z,2.33
2023-05-18T19:56:14.093Z,2.53
2023-05-18T19:58:44.762Z,2.03
2023-05-18T20:01:12.418Z,2.80
2023-05-18T20:03:42.952Z,2.25
2023-05-18T20:06:12.714Z,2.87
2023-05-18T20:08:40.504Z,2.28
2023-05-18T20:11:08.285Z,2.80
2023-05-18T20:13:37.053Z,2.47
2023-05-18T20:16:05.832Z,2.20
2023-05-18T20:18:34.873Z,2.57
2023-05-18T20:21:03.203Z,2.67
2023-05-18T20:23:32.117Z,2.20
2023-05-18T20:26:00.005Z,2.53
2023-05-18T20:28:28.670Z,2.60
2023-05-18T20:30:56.362Z,2.60
2023-05-18T20:33:23.935Z,2.60
2023-05-18T20:35:51.800Z,2.40
2023-05-18T20:38:19.432Z,2.45
2023-05-18T20:40:51.186Z,2.28
2023-05-18T20:43:19.022Z,2.47
2023-05-18T20:45:47.266Z,2.67
2023-05-18T20:48:16.541Z,2.42
2023-05-18T20:50:44.312Z,2.72
2023-05-18T20:53:12.102Z,3.25
2023-05-18T20:55:40.287Z,3.10
2023-05-18T20:58:10.348Z,3.03
2023-05-18T21:00:38.169Z,3.17
2023-05-18T21:03:06.067Z,2.78
2023-05-18T21:05:34.924Z,3.03
2023-05-18T21:08:03.467Z,2.60
2023-05-18T21:10:32.024Z,2.65
2023-05-18T21:12:59.974Z,2.92
2023-05-18T21:15:30.049Z,2.83
2023-05-18T21:17:57.894Z,3.15
2023-05-18T21:20:25.551Z,3.13
2023-05-18T21:22:53.422Z,2.90
2023-05-18T21:25:22.864Z,2.67
2023-05-18T21:27:50.675Z,2.80
2023-05-18T21:30:19.437Z,3.22
2023-05-18T21:32:49.593Z,2.60
2023-05-18T21:35:17.596Z,2.92
2023-05-18T21:37:45.381Z,3.20
2023-05-18T21:40:13.338Z,3.05
2023-05-18T21:42:44.822Z,3.22
2023-05-18T21:45:12.900Z,2.87
2023-05-18T21:47:40.552Z,3.17
2023-05-18T21:50:10.620Z,3.35
2023-05-18T21:52:38.134Z,3.38
2023-05-18T21:55:06.696Z,3.35
2023-05-18T21:57:34.380Z,4.00
2023-05-18T22:00:02.654Z,12.35
2023-05-18T22:02:30.189Z,10.15
2023-05-18T22:04:57.750Z,6.70
2023-05-18T22:07:26.836Z,5.43
2023-05-18T22:09:54.343Z,4.73
2023-05-18T22:12:23.397Z,3.95
2023-05-18T22:14:50.989Z,4.65
2023-05-18T22:17:18.916Z,4.15
2023-05-18T22:19:46.496Z,3.72
2023-05-18T22:22:22.787Z,3.07
2023-05-18T22:24:58.495Z,3.05
2023-05-18T22:27:26.066Z,3.80
2023-05-18T22:29:53.594Z,3.35
2023-05-18T22:32:21.705Z,3.60
2023-05-18T22:34:49.350Z,3.10
2023-05-18T22:37:16.830Z,3.15
2023-05-18T22:39:44.377Z,5.43
2023-05-18T22:42:13.366Z,6.07
2023-05-18T22:44:40.952Z,8.98
2023-05-18T22:47:09.234Z,15.80
2023-05-18T22:49:36.819Z,19.80
2023-05-18T22:52:05.014Z,12.50
2023-05-18T22:54:32.600Z,11.27
2023-05-18T22:57:00.319Z,8.73
2023-05-18T22:59:29.588Z,8.83
2023-05-18T23:01:57.130Z,8.45
2023-05-18T23:04:24.736Z,5.07
2023-05-18T23:06:52.379Z,9.25
2023-05-18T23:09:19.923Z,9.80
2023-05-18T23:11:48.229Z,7.53
2023-05-18T23:14:15.757Z,3.97
2023-05-18T23:16:47.534Z,5.22
2023-05-18T23:19:18.381Z,6.82
2023-05-18T23:21:46.661Z,5.72
2023-05-18T23:24:15.733Z,7.27
2023-05-18T23:26:43.757Z,5.63
2023-05-18T23:29:11.642Z,3.95
2023-05-18T23:31:39.154Z,3.08
2023-05-18T23:34:08.814Z,3.53
2023-05-18T23:36:36.923Z,4.50
2023-05-18T23:39:05.044Z,5.90
2023-05-18T23:41:34.940Z,5.15
2023-05-18T23:44:03.262Z,6.20
2023-05-18T23:46:31.680Z,8.40
2023-05-18T23:49:00.042Z,6.87
2023-05-18T23:51:31.935Z,5.90
2023-05-18T23:53:59.996Z,3.47
2023-05-18T23:56:29.412Z,3.70
2023-05-18T23:58:57.646Z,3.38
